Terminal Aerodrome Forecast
Issued by NWS

Home | Current Version | Previous Version | Text Only | Print | Product List | Glossary On
Versions: 1 2 3 4 5 6 7 8 9 10 11 12 13 14 15 16 17 18 19
000
FTUS41 KGYX 261120
TAFLEB
TAF
KLEB 261120Z 2612/2712 04004KT P6SM SCT120 BKN200
     FM270000 01005KT 4SM -SN OVC025
     FM270500 01010KT 2SM -SN OVC015=

USA.gov is the U.S. government's official web portal to all federal, state and local government web resources and services.